Time;durP1;ratioP1;P1;durP2;ratioP2;P2;SDS_P1;SDS_P2;PMS_P1;PMS_P2;Temp;Humidity;BMP_temperature;BMP_pressure;BME280_temperature;BME280_humidity;BME280_pressure;Samples;Min_cycle;Max_cycle;Signal;HPM_P1;HPM_P2
2023/11/26 00:01:34;;;;;;;5.03;3.67;;;2.00;99.90;;;;;;2011343;29;20542;-71
2023/11/26 00:02:35;;;;;;;6.03;3.70;;;2.00;99.90;;;;;;2009842;29;20030;-72
2023/11/26 00:03:37;;;;;;;5.60;3.72;;;1.90;99.90;;;;;;2004232;29;20052;-71
2023/11/26 00:04:37;;;;;;;7.50;4.00;;;1.90;99.90;;;;;;2008648;29;20057;-71
2023/11/26 00:05:38;;;;;;;5.70;3.78;;;1.90;99.90;;;;;;1998865;29;20061;-72
2023/11/26 00:06:43;;;;;;;5.88;4.07;;;1.90;99.90;;;;;;2008878;29;20075;-78
2023/11/26 00:07:44;;;;;;;6.22;3.97;;;1.90;99.90;;;;;;2009033;29;20024;-77
2023/11/26 00:08:44;;;;;;;6.65;4.28;;;1.90;99.90;;;;;;2017033;29;20492;-77
2023/11/26 00:09:45;;;;;;;5.47;4.00;;;1.90;99.90;;;;;;2007158;29;20120;-77
2023/11/26 00:10:45;;;;;;;6.10;4.10;;;1.90;99.90;;;;;;2006843;29;20025;-78
2023/11/26 00:11:46;;;;;;;7.95;4.30;;;1.90;99.90;;;;;;2014157;29;20235;-78
2023/11/26 00:12:47;;;;;;;6.50;4.20;;;1.90;99.90;;;;;;2017031;29;20040;-78
2023/11/26 00:13:47;;;;;;;7.40;4.13;;;1.90;99.90;;;;;;2015642;29;20230;-77
2023/11/26 00:14:48;;;;;;;6.95;4.47;;;1.90;99.90;;;;;;2009947;29;20049;-78
2023/11/26 00:15:49;;;;;;;6.90;4.35;;;1.90;99.90;;;;;;2009190;29;20052;-75
2023/11/26 00:16:50;;;;;;;6.78;4.10;;;1.90;99.90;;;;;;2016528;29;20256;-78
2023/11/26 00:17:51;;;;;;;7.05;4.40;;;1.90;99.90;;;;;;2015537;29;20436;-77
2023/11/26 00:18:51;;;;;;;6.65;4.32;;;1.80;99.90;;;;;;2017859;29;20029;-77
2023/11/26 00:19:54;;;;;;;8.85;4.47;;;1.80;99.90;;;;;;2016402;29;20567;-78
2023/11/26 00:20:54;;;;;;;8.82;5.30;;;1.80;99.90;;;;;;2009815;29;20041;-77
2023/11/26 00:21:56;;;;;;;9.43;4.95;;;1.70;99.90;;;;;;2007582;29;20065;-77
2023/11/26 00:22:56;;;;;;;7.97;5.20;;;1.70;99.90;;;;;;2009745;29;20044;-79
2023/11/26 00:23:57;;;;;;;9.52;5.22;;;1.70;99.90;;;;;;2007459;29;20117;-76
2023/11/26 00:24:58;;;;;;;8.38;5.05;;;1.70;99.90;;;;;;2010173;29;20033;-78
2023/11/26 00:25:58;;;;;;;10.05;5.68;;;1.80;99.90;;;;;;1995811;29;20042;-76
2023/11/26 00:26:59;;;;;;;8.25;5.53;;;1.80;99.90;;;;;;2010301;29;20037;-78
2023/11/26 00:28:00;;;;;;;9.57;5.80;;;1.70;99.90;;;;;;2003784;29;20217;-77
2023/11/26 00:29:00;;;;;;;11.55;5.40;;;1.70;99.90;;;;;;2016388;29;20037;-77
2023/11/26 00:30:01;;;;;;;8.52;4.82;;;1.70;99.90;;;;;;2016388;29;20028;-76
2023/11/26 00:31:02;;;;;;;8.40;5.15;;;1.70;99.90;;;;;;2012313;29;20029;-79
2023/11/26 00:32:03;;;;;;;8.05;5.22;;;1.70;99.90;;;;;;2008638;29;20498;-77
2023/11/26 00:33:03;;;;;;;7.93;4.57;;;1.70;99.90;;;;;;2016291;29;20064;-77
2023/11/26 00:34:04;;;;;;;8.85;4.90;;;1.70;99.90;;;;;;2013431;29;20029;-78
2023/11/26 00:35:06;;;;;;;48.80;23.88;;;1.70;99.90;;;;;;2015588;29;20072;-79
2023/11/26 00:36:07;;;;;;;7.35;4.70;;;1.70;99.90;;;;;;2015163;29;20051;-78
2023/11/26 00:37:07;;;;;;;8.05;4.32;;;1.70;99.90;;;;;;2016143;29;20033;-79
2023/11/26 00:38:08;;;;;;;6.05;3.95;;;1.70;99.90;;;;;;2005202;29;20030;-79
2023/11/26 00:39:09;;;;;;;7.57;4.07;;;1.70;99.90;;;;;;1987692;29;20118;-78
2023/11/26 00:40:12;;;;;;;6.18;3.72;;;1.70;99.90;;;;;;1992370;29;20056;-78
2023/11/26 00:41:13;;;;;;;7.28;4.22;;;1.70;99.90;;;;;;2006282;29;20484;-79
2023/11/26 00:42:14;;;;;;;7.53;4.38;;;1.70;99.90;;;;;;2007887;29;20380;-79
2023/11/26 00:43:14;;;;;;;6.90;3.88;;;1.70;99.90;;;;;;2001612;29;20137;-78
2023/11/26 00:44:15;;;;;;;7.18;3.88;;;1.70;99.90;;;;;;2006082;29;20033;-78
2023/11/26 00:45:16;;;;;;;5.80;3.67;;;1.70;99.90;;;;;;2007663;29;20116;-78
2023/11/26 00:46:16;;;;;;;6.78;4.10;;;1.70;99.90;;;;;;1997971;29;20030;-79
2023/11/26 00:47:17;;;;;;;6.82;3.92;;;1.70;99.90;;;;;;2005705;29;20072;-78
2023/11/26 00:48:17;;;;;;;8.30;3.83;;;1.70;99.90;;;;;;2013181;29;20036;-79
2023/11/26 00:49:18;;;;;;;6.15;4.10;;;1.70;99.90;;;;;;2003374;29;20085;-79
2023/11/26 00:50:18;;;;;;;7.75;3.70;;;1.70;99.90;;;;;;1996279;29;20030;-78
2023/11/26 00:51:21;;;;;;;7.85;4.03;;;1.70;99.90;;;;;;1999550;29;20045;-79
2023/11/26 00:52:21;;;;;;;6.35;4.20;;;1.70;99.90;;;;;;2006363;29;20931;-78
2023/11/26 00:53:23;;;;;;;6.28;3.80;;;1.70;99.90;;;;;;1998569;29;20054;-78
2023/11/26 00:54:24;;;;;;;7.22;3.80;;;1.70;99.90;;;;;;2005186;29;20102;-79
2023/11/26 00:55:24;;;;;;;7.65;4.07;;;1.60;99.90;;;;;;2007714;29;20074;-79
2023/11/26 00:56:26;;;;;;;10.43;4.75;;;1.60;99.90;;;;;;1999096;29;20512;-79
2023/11/26 00:57:27;;;;;;;6.38;4.10;;;1.60;99.90;;;;;;2000782;29;20500;-78
2023/11/26 00:58:29;;;;;;;7.43;4.07;;;1.60;99.90;;;;;;2004144;29;20038;-78
2023/11/26 00:59:29;;;;;;;7.60;4.07;;;1.60;99.90;;;;;;2003314;29;20025;-78
2023/11/26 01:00:30;;;;;;;8.00;4.13;;;1.50;99.90;;;;;;2004756;29;20041;-77
2023/11/26 01:01:32;;;;;;;7.38;4.05;;;1.60;99.90;;;;;;1999629;29;20386;-78
2023/11/26 01:02:34;;;;;;;7.43;4.10;;;1.50;99.90;;;;;;2000112;29;20408;-79
2023/11/26 01:03:34;;;;;;;7.70;3.83;;;1.50;99.90;;;;;;2004702;29;20268;-79
2023/11/26 01:04:35;;;;;;;8.45;4.10;;;1.50;99.90;;;;;;2007990;29;20033;-77
2023/11/26 01:05:36;;;;;;;7.63;4.28;;;1.50;99.90;;;;;;1999968;29;20026;-78
2023/11/26 01:06:38;;;;;;;7.88;4.25;;;1.50;99.90;;;;;;1996695;29;20034;-79
2023/11/26 01:07:38;;;;;;;7.20;4.15;;;1.50;99.90;;;;;;1995207;29;20572;-79
2023/11/26 01:08:39;;;;;;;7.38;4.10;;;1.50;99.90;;;;;;1999889;29;20538;-79
2023/11/26 01:09:39;;;;;;;8.82;4.15;;;1.50;99.90;;;;;;1996984;29;20401;-79
2023/11/26 01:10:40;;;;;;;7.90;4.07;;;1.50;99.90;;;;;;2007429;29;21082;-79
2023/11/26 01:11:42;;;;;;;9.68;4.05;;;1.50;99.90;;;;;;2006841;29;20521;-76
2023/11/26 01:12:42;;;;;;;7.10;3.78;;;1.50;99.90;;;;;;1999831;29;20126;-74
2023/11/26 01:13:43;;;;;;;8.70;4.20;;;1.50;99.90;;;;;;1997250;29;20026;-73
2023/11/26 01:14:43;;;;;;;6.43;4.10;;;1.50;99.90;;;;;;2006162;29;20032;-74
2023/11/26 01:15:44;;;;;;;9.48;4.40;;;1.50;99.90;;;;;;2003612;29;20197;-73
2023/11/26 01:16:45;;;;;;;7.28;4.05;;;1.50;99.90;;;;;;1997582;29;20513;-76
2023/11/26 01:17:47;;;;;;;7.65;4.32;;;1.50;99.90;;;;;;1994570;29;20446;-76
2023/11/26 01:18:48;;;;;;;9.00;4.45;;;1.60;99.90;;;;;;1998045;29;20124;-75
2023/11/26 01:19:48;;;;;;;8.57;4.60;;;1.60;99.90;;;;;;1996841;29;20044;-77
2023/11/26 01:20:49;;;;;;;8.75;4.50;;;1.50;99.90;;;;;;1990117;29;20026;-75
2023/11/26 01:21:50;;;;;;;7.38;4.10;;;1.50;99.90;;;;;;1998148;29;20094;-75
2023/11/26 01:22:50;;;;;;;10.88;4.38;;;1.50;99.90;;;;;;1997905;29;20034;-76
2023/11/26 01:23:53;;;;;;;6.45;4.30;;;1.50;99.90;;;;;;1986779;29;20125;-76
2023/11/26 01:24:54;;;;;;;6.55;4.25;;;1.50;99.90;;;;;;1996151;29;20109;-77
2023/11/26 01:25:54;;;;;;;9.23;4.45;;;1.50;99.90;;;;;;1996628;29;20324;-76
2023/11/26 01:26:55;;;;;;;5.95;4.30;;;1.50;99.90;;;;;;1988821;29;20026;-76
2023/11/26 01:27:56;;;;;;;6.38;4.18;;;1.50;99.90;;;;;;1997178;29;20157;-79
2023/11/26 01:28:56;;;;;;;8.38;4.68;;;1.50;99.90;;;;;;2005653;29;20033;-77
2023/11/26 01:29:58;;;;;;;7.80;4.32;;;1.50;99.90;;;;;;2004346;29;20141;-76
2023/11/26 01:30:59;;;;;;;7.28;4.25;;;1.50;99.90;;;;;;2007237;29;20081;-76
2023/11/26 01:31:59;;;;;;;9.43;4.60;;;1.50;99.90;;;;;;1998916;29;20109;-77
2023/11/26 01:33:00;;;;;;;8.00;4.80;;;1.50;99.90;;;;;;1989742;29;20038;-77
2023/11/26 01:34:01;;;;;;;7.90;4.30;;;1.50;99.90;;;;;;1991966;29;20068;-76
2023/11/26 01:35:02;;;;;;;6.07;4.13;;;1.50;99.90;;;;;;1991819;29;20034;-78
2023/11/26 01:36:07;;;;;;;7.63;4.70;;;1.50;99.90;;;;;;2000348;29;20469;-77
2023/11/26 01:37:08;;;;;;;7.72;4.43;;;1.50;99.90;;;;;;1993512;29;20144;-77
2023/11/26 01:38:09;;;;;;;10.55;4.40;;;1.50;99.90;;;;;;2007965;29;20025;-80
2023/11/26 01:39:11;;;;;;;8.90;4.22;;;1.50;99.90;;;;;;2007795;29;20021;-80
2023/11/26 01:40:11;;;;;;;7.85;4.40;;;1.50;99.90;;;;;;1997321;29;20053;-80
2023/11/26 01:41:13;;;;;;;8.50;4.07;;;1.50;99.90;;;;;;1999491;29;20057;-81
2023/11/26 01:42:13;;;;;;;6.85;4.15;;;1.50;99.90;;;;;;1999837;29;20061;-79
2023/11/26 01:43:14;;;;;;;6.03;4.03;;;1.60;99.90;;;;;;1996268;29;20109;-79
2023/11/26 01:44:15;;;;;;;9.25;4.50;;;1.50;99.90;;;;;;2002573;29;20397;-81
2023/11/26 01:45:17;;;;;;;7.47;4.30;;;1.50;99.90;;;;;;1997848;29;20117;-80
2023/11/26 01:46:19;;;;;;;8.27;4.65;;;1.50;99.90;;;;;;1998425;29;20446;-79
2023/11/26 01:47:22;;;;;;;8.52;4.10;;;1.50;99.90;;;;;;1999569;29;20409;-79
2023/11/26 01:48:23;;;;;;;9.13;4.07;;;1.50;99.90;;;;;;1997162;29;20071;-80
2023/11/26 01:49:24;;;;;;;10.07;4.30;;;1.50;99.90;;;;;;1989591;29;20572;-80
2023/11/26 01:50:26;;;;;;;7.43;4.13;;;1.50;99.90;;;;;;1998848;29;20042;-80
2023/11/26 01:51:30;;;;;;;6.75;4.30;;;1.50;99.90;;;;;;1998247;29;20383;-80
2023/11/26 01:52:31;;;;;;;9.55;4.13;;;1.60;99.90;;;;;;1997672;29;20054;-79
2023/11/26 01:53:32;;;;;;;7.80;4.15;;;1.50;99.90;;;;;;1993679;29;20038;-79
2023/11/26 01:54:37;;;;;;;6.40;3.97;;;1.50;99.90;;;;;;1998616;29;20041;-78
2023/11/26 01:55:38;;;;;;;8.38;3.67;;;1.60;99.90;;;;;;2005497;29;20033;-78
2023/11/26 01:56:39;;;;;;;7.03;4.20;;;1.60;99.90;;;;;;2011255;29;20060;-79
2023/11/26 01:57:40;;;;;;;5.82;4.10;;;1.60;99.90;;;;;;2013195;29;20021;-80
2023/11/26 01:58:40;;;;;;;8.40;3.80;;;1.60;99.90;;;;;;2000560;29;20068;-80
2023/11/26 01:59:42;;;;;;;8.50;3.97;;;1.60;99.90;;;;;;1990309;29;20064;-80
2023/11/26 02:00:42;;;;;;;8.30;4.13;;;1.60;99.90;;;;;;1999434;29;20041;-80
2023/11/26 02:01:43;;;;;;;7.53;4.00;;;1.60;99.90;;;;;;2007091;29;20495;-81
2023/11/26 02:02:44;;;;;;;7.82;4.43;;;1.60;99.90;;;;;;1996863;29;20656;-82
2023/11/26 02:03:44;;;;;;;7.15;3.85;;;1.60;99.90;;;;;;1999825;29;20030;-79
2023/11/26 02:04:45;;;;;;;7.88;3.88;;;1.60;99.90;;;;;;1997854;29;20026;-79
2023/11/26 02:05:46;;;;;;;6.78;4.07;;;1.60;99.90;;;;;;1994542;29;20535;-81
2023/11/26 02:06:49;;;;;;;6.93;3.70;;;1.60;99.90;;;;;;1997631;29;20068;-79
2023/11/26 02:07:49;;;;;;;6.45;4.28;;;1.60;99.90;;;;;;2001522;29;20545;-80
2023/11/26 02:08:50;;;;;;;6.50;3.88;;;1.60;99.90;;;;;;1999048;29;20061;-81
2023/11/26 02:09:53;;;;;;;7.93;4.55;;;1.50;99.90;;;;;;2007378;29;20029;-79
2023/11/26 02:10:53;;;;;;;6.35;4.22;;;1.50;99.90;;;;;;2006243;29;20030;-80
2023/11/26 02:11:55;;;;;;;6.90;4.13;;;1.50;99.90;;;;;;1997923;29;20025;-81
2023/11/26 02:13:06;;;;;;;8.70;4.10;;;1.50;99.90;;;;;;1998069;29;20412;-81
2023/11/26 02:14:07;;;;;;;8.23;4.40;;;1.50;99.90;;;;;;1998211;29;20079;-81
2023/11/26 02:15:09;;;;;;;6.93;4.40;;;1.50;99.90;;;;;;1995072;29;20037;-81
2023/11/26 02:16:10;;;;;;;8.15;4.20;;;1.40;99.90;;;;;;1998811;29;20489;-81
2023/11/26 02:17:11;;;;;;;7.68;4.30;;;1.40;99.90;;;;;;1997446;29;20034;-80
2023/11/26 02:18:11;;;;;;;7.35;4.35;;;1.40;99.90;;;;;;1991922;29;20079;-81
2023/11/26 02:19:25;;;;;;;6.60;4.22;;;1.40;99.90;;;;;;1995739;29;20525;-81
2023/11/26 02:20:26;;;;;;;8.02;4.38;;;1.40;99.90;;;;;;2006620;29;21079;-81
2023/11/26 02:21:27;;;;;;;7.50;4.47;;;1.40;99.90;;;;;;2005489;29;20041;-80
2023/11/26 02:22:28;;;;;;;7.40;4.75;;;1.30;99.90;;;;;;1997323;29;20034;-82
2023/11/26 02:23:28;;;;;;;7.78;4.68;;;1.30;99.90;;;;;;1990858;29;20114;-81
2023/11/26 02:24:30;;;;;;;7.20;4.07;;;1.30;99.90;;;;;;1996435;29;20031;-79
2023/11/26 02:25:31;;;;;;;7.35;4.40;;;1.30;99.90;;;;;;2001289;29;20569;-80
2023/11/26 02:26:31;;;;;;;6.82;4.28;;;1.30;99.90;;;;;;1998294;29;20129;-80
2023/11/26 02:27:33;;;;;;;9.25;4.32;;;1.30;99.90;;;;;;1995815;29;20033;-80
2023/11/26 02:28:36;;;;;;;6.15;4.00;;;1.30;99.90;;;;;;1988870;29;20050;-80
2023/11/26 02:29:38;;;;;;;5.97;4.03;;;1.20;99.90;;;;;;1993652;29;20153;-79
2023/11/26 02:30:40;;;;;;;7.55;4.03;;;1.20;99.90;;;;;;2007129;29;20102;-80
2023/11/26 02:31:41;;;;;;;5.43;4.00;;;1.20;99.90;;;;;;1993142;29;20354;-79
2023/11/26 02:32:41;;;;;;;6.82;3.60;;;1.20;99.90;;;;;;1988332;29;20655;-80
2023/11/26 02:33:42;;;;;;;5.65;3.65;;;1.10;99.90;;;;;;1980386;29;20379;-81
2023/11/26 02:34:43;;;;;;;6.53;3.50;;;1.10;99.90;;;;;;1987490;29;20041;-83
2023/11/26 02:35:43;;;;;;;5.07;3.50;;;1.10;99.90;;;;;;1999872;29;20033;-81
2023/11/26 02:36:44;;;;;;;6.30;3.50;;;1.10;99.90;;;;;;1997330;29;20049;-81
2023/11/26 02:37:45;;;;;;;5.03;3.40;;;1.10;99.90;;;;;;1993069;29;20109;-81
2023/11/26 02:38:46;;;;;;;4.78;3.10;;;1.10;99.90;;;;;;1994165;29;20037;-80
2023/11/26 02:39:47;;;;;;;4.40;3.20;;;1.10;99.90;;;;;;1996552;29;20034;-81
2023/11/26 02:40:48;;;;;;;4.30;3.40;;;1.10;99.90;;;;;;1991111;29;20375;-80
2023/11/26 02:41:49;;;;;;;5.53;3.20;;;1.10;99.90;;;;;;1992744;29;20404;-81
2023/11/26 02:42:50;;;;;;;5.88;3.90;;;1.10;99.90;;;;;;1997701;29;20034;-81
2023/11/26 02:43:50;;;;;;;4.70;3.35;;;1.10;99.90;;;;;;2007344;29;20298;-81
2023/11/26 02:44:51;;;;;;;6.20;3.80;;;1.10;99.90;;;;;;2005870;29;20033;-81
2023/11/26 02:45:56;;;;;;;6.22;3.83;;;1.10;99.90;;;;;;2007502;29;20217;-81
2023/11/26 02:46:57;;;;;;;7.78;4.15;;;1.10;99.90;;;;;;2006852;29;20516;-79
2023/11/26 02:47:57;;;;;;;6.20;4.07;;;1.10;99.90;;;;;;2005025;29;20513;-81
2023/11/26 02:48:58;;;;;;;5.97;3.97;;;1.10;99.90;;;;;;1996898;29;20041;-79
2023/11/26 02:49:59;;;;;;;6.63;3.90;;;1.10;99.90;;;;;;1998892;29;20033;-80
2023/11/26 02:50:59;;;;;;;7.57;4.00;;;1.20;99.90;;;;;;2004968;29;20041;-79
2023/11/26 02:52:00;;;;;;;5.28;4.05;;;1.10;99.90;;;;;;1999917;29;20235;-80
2023/11/26 02:53:00;;;;;;;5.78;3.67;;;1.20;99.90;;;;;;1999148;29;20041;-80
2023/11/26 02:54:01;;;;;;;6.43;3.90;;;1.10;99.90;;;;;;1996753;29;20064;-80
2023/11/26 02:55:02;;;;;;;5.15;4.00;;;1.10;99.90;;;;;;2010514;29;20507;-80
2023/11/26 02:56:05;;;;;;;7.85;4.28;;;1.20;99.90;;;;;;2008122;29;20136;-80
2023/11/26 02:57:06;;;;;;;8.85;4.07;;;1.20;99.90;;;;;;2004012;29;20195;-80
2023/11/26 02:58:13;;;;;;;5.72;4.30;;;1.20;99.90;;;;;;2007720;29;20367;-78
2023/11/26 02:59:13;;;;;;;6.07;4.00;;;1.20;99.90;;;;;;2007492;29;20252;-82
2023/11/26 03:00:20;;;;;;;6.22;4.30;;;1.20;99.90;;;;;;2005094;29;20060;-80
2023/11/26 03:01:21;;;;;;;6.18;4.25;;;1.20;99.90;;;;;;2006021;29;20033;-79
2023/11/26 03:02:22;;;;;;;9.27;4.38;;;1.10;99.90;;;;;;2004577;29;20022;-80
2023/11/26 03:03:23;;;;;;;5.88;4.30;;;1.10;99.90;;;;;;2008279;29;20043;-81
2023/11/26 03:04:24;;;;;;;5.88;3.85;;;1.10;99.90;;;;;;1996832;29;20041;-80
2023/11/26 03:05:24;;;;;;;7.15;4.03;;;1.10;99.90;;;;;;1997615;29;20120;-81
2023/11/26 03:06:26;;;;;;;7.50;4.30;;;1.10;99.90;;;;;;2008184;29;20256;-80
2023/11/26 03:07:27;;;;;;;6.45;4.38;;;1.20;99.90;;;;;;1998581;29;20136;-79
2023/11/26 03:08:32;;;;;;;7.03;4.50;;;1.10;99.90;;;;;;1992229;29;20532;-80
2023/11/26 03:13:12;;;;;;;8.43;4.63;;;1.10;99.90;;;;;;2003387;29;20377;-81
2023/11/26 03:14:14;;;;;;;8.07;5.15;;;1.10;99.90;;;;;;1999914;29;20028;-79
2023/11/26 03:15:16;;;;;;;6.85;4.72;;;1.10;99.90;;;;;;1999205;29;20432;-79
2023/11/26 03:16:16;;;;;;;6.72;4.97;;;1.10;99.90;;;;;;2007053;29;20056;-81
2023/11/26 03:17:18;;;;;;;7.57;4.78;;;1.20;99.90;;;;;;2002462;29;20041;-80
2023/11/26 03:18:18;;;;;;;6.93;4.85;;;1.20;99.90;;;;;;2006667;29;20488;-80
2023/11/26 03:19:19;;;;;;;6.72;4.90;;;1.20;99.90;;;;;;2006846;29;20036;-80
2023/11/26 03:20:19;;;;;;;6.20;4.53;;;1.20;99.90;;;;;;1996989;29;20025;-79
2023/11/26 03:21:26;;;;;;;7.20;4.90;;;1.20;99.90;;;;;;1997949;29;20155;-80
2023/11/26 03:22:27;;;;;;;7.63;4.90;;;1.20;99.90;;;;;;2001430;29;20036;-80
2023/11/26 03:23:28;;;;;;;8.68;5.10;;;1.20;99.90;;;;;;2003743;29;20248;-80
2023/11/26 03:24:29;;;;;;;7.45;5.15;;;1.20;99.90;;;;;;2005720;29;20041;-79
2023/11/26 03:25:30;;;;;;;6.45;4.82;;;1.20;99.90;;;;;;1999641;29;20040;-79
2023/11/26 03:26:31;;;;;;;10.27;4.68;;;1.20;99.90;;;;;;2003102;29;20510;-79
2023/11/26 03:27:35;;;;;;;8.63;4.55;;;1.20;99.90;;;;;;2003270;29;20033;-79
2023/11/26 03:28:36;;;;;;;7.13;4.80;;;1.20;99.90;;;;;;1999702;29;20512;-78
2023/11/26 03:29:36;;;;;;;7.57;5.07;;;1.20;99.90;;;;;;2007105;29;20245;-79
2023/11/26 03:30:37;;;;;;;7.80;4.80;;;1.20;99.90;;;;;;2004362;29;20048;-78
2023/11/26 03:31:40;;;;;;;8.32;4.40;;;1.30;99.90;;;;;;2003419;29;20049;-78
2023/11/26 03:32:41;;;;;;;7.82;4.60;;;1.20;99.90;;;;;;1996101;29;20026;-80
2023/11/26 03:33:42;;;;;;;7.53;5.18;;;1.30;99.90;;;;;;1991487;29;20034;-80
2023/11/26 03:34:42;;;;;;;9.77;5.03;;;1.30;99.90;;;;;;1995890;29;20030;-78
2023/11/26 03:35:45;;;;;;;9.07;4.82;;;1.30;99.90;;;;;;2003692;29;20264;-79
2023/11/26 03:36:45;;;;;;;7.90;4.63;;;1.30;99.90;;;;;;2003942;29;20089;-81
2023/11/26 03:37:47;;;;;;;8.05;5.00;;;1.30;99.90;;;;;;2006485;29;20021;-81
2023/11/26 03:38:47;;;;;;;7.00;4.35;;;1.30;99.90;;;;;;2003237;29;20029;-81
2023/11/26 03:39:48;;;;;;;6.88;4.10;;;1.30;99.90;;;;;;2003907;29;20504;-81
2023/11/26 03:40:49;;;;;;;6.82;4.20;;;1.30;99.90;;;;;;2003895;29;20090;-80
2023/11/26 03:41:50;;;;;;;5.53;4.10;;;1.30;99.90;;;;;;2006663;29;20503;-79
2023/11/26 03:42:51;;;;;;;9.27;4.20;;;1.30;99.90;;;;;;2004665;29;20033;-79
2023/11/26 03:43:51;;;;;;;6.45;4.10;;;1.30;99.90;;;;;;2001759;29;20062;-80
2023/11/26 03:44:52;;;;;;;5.32;3.63;;;1.20;99.90;;;;;;2000664;29;20034;-78
2023/11/26 03:45:53;;;;;;;6.32;3.92;;;1.20;99.90;;;;;;1998641;29;20313;-79
2023/11/26 03:46:53;;;;;;;6.32;3.70;;;1.20;99.90;;;;;;2005307;29;20061;-79
2023/11/26 03:47:54;;;;;;;5.18;3.75;;;1.20;99.90;;;;;;2004818;29;20064;-78
2023/11/26 03:48:55;;;;;;;7.35;3.88;;;1.20;99.90;;;;;;1997424;29;20045;-80
2023/11/26 03:49:56;;;;;;;6.05;3.80;;;1.20;99.90;;;;;;1997062;29;20030;-79
2023/11/26 03:50:56;;;;;;;5.68;3.60;;;1.20;99.90;;;;;;2000801;29;20129;-79
2023/11/26 03:51:57;;;;;;;6.55;4.05;;;1.10;99.90;;;;;;1999351;29;20041;-79
2023/11/26 03:52:58;;;;;;;4.72;3.63;;;1.10;99.90;;;;;;1998771;29;20069;-79
2023/11/26 03:53:59;;;;;;;6.53;3.88;;;1.10;99.90;;;;;;2005960;29;20069;-79
2023/11/26 03:54:59;;;;;;;5.20;3.65;;;1.00;99.90;;;;;;1998888;29;20038;-79
2023/11/26 03:56:00;;;;;;;6.38;3.90;;;1.00;99.90;;;;;;1998365;29;20046;-78
2023/11/26 03:57:00;;;;;;;8.65;3.83;;;1.00;99.90;;;;;;1995329;29;20046;-79
2023/11/26 03:58:01;;;;;;;4.18;3.30;;;1.00;99.90;;;;;;1994535;29;20034;-79
2023/11/26 03:59:01;;;;;;;4.18;3.28;;;1.00;99.90;;;;;;1999403;29;20525;-79
2023/11/26 04:00:03;;;;;;;6.00;3.80;;;1.00;99.90;;;;;;2004897;29;20045;-79
2023/11/26 04:01:13;;;;;;;5.65;3.33;;;1.00;99.90;;;;;;2005232;29;20116;-78
2023/11/26 04:02:14;;;;;;;5.00;3.60;;;1.00;99.90;;;;;;1997225;29;20045;-80
2023/11/26 04:03:15;;;;;;;7.88;3.67;;;1.00;99.90;;;;;;2000391;29;20057;-79
2023/11/26 04:04:16;;;;;;;5.10;3.70;;;1.00;99.90;;;;;;2008331;29;20249;-81
2023/11/26 04:05:16;;;;;;;5.85;3.88;;;1.00;99.90;;;;;;2005322;29;20104;-80
2023/11/26 04:06:17;;;;;;;5.55;3.80;;;0.90;99.90;;;;;;2009094;29;20069;-79
2023/11/26 04:07:18;;;;;;;5.38;3.63;;;0.90;99.90;;;;;;2007997;29;20503;-80
2023/11/26 04:08:19;;;;;;;6.10;3.85;;;1.00;99.90;;;;;;1996394;29;20484;-78
2023/11/26 04:09:20;;;;;;;5.05;3.67;;;0.90;99.90;;;;;;1996442;29;20116;-80
2023/11/26 04:10:21;;;;;;;7.22;4.13;;;0.90;99.90;;;;;;1998285;29;20564;-80
2023/11/26 04:11:21;;;;;;;5.50;3.80;;;0.90;99.90;;;;;;2010091;29;20021;-80
2023/11/26 04:12:23;;;;;;;6.03;3.65;;;0.90;99.90;;;;;;2007222;29;20456;-79
2023/11/26 04:13:27;;;;;;;5.47;3.90;;;0.90;99.90;;;;;;1998996;29;20437;-79
2023/11/26 04:14:34;;;;;;;5.40;4.05;;;0.90;99.90;;;;;;1995539;29;20030;-79
2023/11/26 04:15:36;;;;;;;5.53;3.78;;;0.90;99.90;;;;;;1995360;29;20039;-80
2023/11/26 04:16:36;;;;;;;6.70;4.05;;;0.90;99.90;;;;;;1991810;29;20026;-80
2023/11/26 04:17:38;;;;;;;6.47;3.92;;;0.90;99.90;;;;;;1990439;29;20123;-80
2023/11/26 04:18:39;;;;;;;5.68;3.83;;;0.90;99.90;;;;;;2008232;29;20061;-79
2023/11/26 04:19:40;;;;;;;7.00;4.25;;;0.80;99.90;;;;;;2004885;29;20033;-80
2023/11/26 04:20:41;;;;;;;7.07;3.72;;;0.80;99.90;;;;;;2005658;29;20538;-80
2023/11/26 04:21:45;;;;;;;5.90;3.90;;;0.80;99.90;;;;;;2000785;29;20052;-78
2023/11/26 04:22:45;;;;;;;6.30;3.53;;;0.80;99.90;;;;;;2001171;29;20041;-80
2023/11/26 04:23:46;;;;;;;5.95;4.03;;;0.80;99.90;;;;;;1997734;29;20043;-79
2023/11/26 04:24:48;;;;;;;7.10;3.90;;;0.80;99.90;;;;;;2001030;29;20038;-81
2023/11/26 04:25:49;;;;;;;5.45;3.58;;;0.80;99.90;;;;;;2010436;29;20045;-80
2023/11/26 04:26:50;;;;;;;6.38;3.78;;;0.80;99.90;;;;;;2007953;29;20052;-80
2023/11/26 04:27:51;;;;;;;7.70;3.60;;;0.80;99.90;;;;;;2008935;29;20043;-80
2023/11/26 04:28:53;;;;;;;5.05;3.50;;;0.80;99.90;;;;;;2000038;29;20417;-80
2023/11/26 04:29:54;;;;;;;5.22;3.25;;;0.80;99.90;;;;;;2002935;29;20039;-79
2023/11/26 04:30:54;;;;;;;5.68;3.90;;;0.80;99.90;;;;;;2009539;29;20053;-80
2023/11/26 04:31:55;;;;;;;6.22;4.00;;;0.80;99.90;;;;;;2006842;29;20479;-80
2023/11/26 04:32:56;;;;;;;7.05;3.83;;;0.80;99.90;;;;;;1999117;29;20110;-79
2023/11/26 04:33:56;;;;;;;5.07;3.40;;;0.80;99.90;;;;;;2000008;29;20121;-80
2023/11/26 04:34:57;;;;;;;7.82;3.72;;;0.80;99.90;;;;;;1996428;29;20509;-80
2023/11/26 04:35:57;;;;;;;6.07;3.20;;;0.80;99.90;;;;;;1993194;29;20537;-80
2023/11/26 04:36:58;;;;;;;6.65;3.53;;;0.80;99.90;;;;;;1998950;29;20162;-80
2023/11/26 04:37:58;;;;;;;4.40;3.40;;;0.80;99.90;;;;;;1998879;29;20085;-80
2023/11/26 04:38:59;;;;;;;5.45;3.90;;;0.80;99.90;;;;;;1999132;29;20132;-80
2023/11/26 04:40:00;;;;;;;6.47;3.60;;;0.80;99.90;;;;;;2008106;29;20045;-80
2023/11/26 04:41:01;;;;;;;4.53;3.33;;;0.80;99.90;;;;;;1999132;29;20508;-80
2023/11/26 04:42:02;;;;;;;4.70;3.65;;;0.70;99.90;;;;;;1999354;29;20175;-80
2023/11/26 04:43:02;;;;;;;5.75;4.15;;;0.70;99.90;;;;;;2008971;29;20042;-80
2023/11/26 04:44:03;;;;;;;7.43;3.80;;;0.70;99.90;;;;;;2004609;29;20585;-80
2023/11/26 04:45:04;;;;;;;6.43;3.90;;;0.60;99.90;;;;;;1994781;29;20030;-79
2023/11/26 04:46:05;;;;;;;5.75;3.90;;;0.60;99.90;;;;;;2000841;29;20155;-79
2023/11/26 04:47:07;;;;;;;5.90;3.95;;;0.60;99.90;;;;;;2009065;29;20124;-79
2023/11/26 04:48:08;;;;;;;4.88;3.60;;;0.70;99.90;;;;;;2009790;29;20092;-79
2023/11/26 04:49:09;;;;;;;5.25;3.80;;;0.70;99.90;;;;;;2016273;29;20038;-79
2023/11/26 04:50:10;;;;;;;5.93;3.88;;;0.60;99.90;;;;;;2012579;29;20033;-79
2023/11/26 04:51:11;;;;;;;6.15;3.80;;;0.60;99.90;;;;;;2013740;29;20092;-79
2023/11/26 04:52:11;;;;;;;5.93;3.90;;;0.60;99.90;;;;;;2008076;29;20026;-79
2023/11/26 04:53:12;;;;;;;6.60;4.00;;;0.60;99.90;;;;;;2008238;29;20715;-78
2023/11/26 04:54:12;;;;;;;4.30;3.67;;;0.60;99.90;;;;;;1999795;29;20109;-79
2023/11/26 04:55:13;;;;;;;4.90;3.58;;;0.60;99.90;;;;;;1992586;29;20439;-76
2023/11/26 04:56:13;;;;;;;5.65;3.55;;;0.60;99.90;;;;;;2009074;29;20029;-80
2023/11/26 04:57:14;;;;;;;4.55;3.50;;;0.60;99.90;;;;;;2000522;29;20053;-78
2023/11/26 04:58:15;;;;;;;5.70;3.50;;;0.60;99.90;;;;;;1996760;29;20038;-80
2023/11/26 04:59:16;;;;;;;4.50;3.45;;;0.60;99.90;;;;;;2000291;29;20038;-81
2023/11/26 05:00:17;;;;;;;4.30;3.30;;;0.60;99.90;;;;;;2007699;29;20511;-79
2023/11/26 05:01:18;;;;;;;4.30;3.20;;;0.60;99.90;;;;;;2000840;29;20086;-80
2023/11/26 05:02:19;;;;;;;5.07;3.42;;;0.60;99.90;;;;;;2007484;29;20053;-80
2023/11/26 05:03:22;;;;;;;5.30;3.20;;;0.60;99.90;;;;;;2007695;29;20044;-80
2023/11/26 05:04:23;;;;;;;4.80;3.17;;;0.60;99.90;;;;;;2006233;29;20523;-82
2023/11/26 05:05:23;;;;;;;5.07;3.35;;;0.60;99.90;;;;;;2007225;29;20124;-82
2023/11/26 05:06:24;;;;;;;5.93;3.75;;;0.60;99.90;;;;;;2008748;29;20045;-81
2023/11/26 05:07:24;;;;;;;6.43;3.78;;;0.60;99.90;;;;;;2007249;29;20456;-81
2023/11/26 05:08:25;;;;;;;5.30;3.90;;;0.70;99.90;;;;;;2003798;29;20392;-79
2023/11/26 05:09:26;;;;;;;6.47;3.88;;;0.70;99.90;;;;;;2004798;29;20407;-79
2023/11/26 05:10:28;;;;;;;7.38;4.53;;;0.70;99.90;;;;;;2004833;29;20038;-80
2023/11/26 05:11:31;;;;;;;6.38;4.55;;;0.70;99.90;;;;;;2000198;29;20030;-79
2023/11/26 05:12:35;;;;;;;6.60;4.05;;;0.70;99.90;;;;;;1998657;29;20030;-80
2023/11/26 05:13:35;;;;;;;6.88;4.05;;;0.70;99.90;;;;;;1999913;29;20064;-80
2023/11/26 05:14:36;;;;;;;5.53;3.63;;;0.70;99.90;;;;;;2005235;29;20029;-81
2023/11/26 05:15:37;;;;;;;8.23;4.30;;;0.70;99.90;;;;;;2007631;29;20117;-80
2023/11/26 05:16:38;;;;;;;6.93;4.10;;;0.70;99.90;;;;;;2007019;29;20445;-79
2023/11/26 05:17:39;;;;;;;4.82;3.60;;;0.70;99.90;;;;;;2004694;29;20048;-80
2023/11/26 05:18:39;;;;;;;6.32;4.10;;;0.70;99.90;;;;;;2007576;29;20695;-79
2023/11/26 05:19:40;;;;;;;6.07;3.90;;;0.70;99.90;;;;;;2003103;29;20108;-79
2023/11/26 05:20:43;;;;;;;6.43;3.70;;;0.60;99.90;;;;;;2004790;29;20526;-80
2023/11/26 05:21:43;;;;;;;5.00;3.47;;;0.70;99.90;;;;;;1996339;29;20030;-80
2023/11/26 05:22:44;;;;;;;5.35;3.33;;;0.70;99.90;;;;;;1999883;29;20033;-78
2023/11/26 05:23:45;;;;;;;5.93;3.50;;;0.60;99.90;;;;;;1996185;29;20117;-79
2023/11/26 05:24:45;;;;;;;5.03;3.58;;;0.60;99.90;;;;;;2001971;29;20552;-79
2023/11/26 05:25:46;;;;;;;5.55;3.60;;;0.60;99.90;;;;;;2004024;29;20124;-79
2023/11/26 05:26:47;;;;;;;6.30;3.65;;;0.60;99.90;;;;;;1996342;29;20038;-79
2023/11/26 05:27:48;;;;;;;7.22;3.88;;;0.60;99.90;;;;;;1997893;29;20053;-79